Time;durP1;ratioP1;P1;durP2;ratioP2;P2;SDS_P1;SDS_P2;PMS_P1;PMS_P2;Temp;Humidity;BMP_temperature;BMP_pressure;BME280_temperature;BME280_humidity;BME280_pressure;Samples;Min_cycle;Max_cycle;Signal;HPM_P1;HPM_P2
2022/03/21 00:00:57;;;;;;;32.23;14.33;;;0.30;72.60;;;;;;5015373;28;20183;-65
2022/03/21 00:03:25;;;;;;;31.17;14.37;;;0.30;72.70;;;;;;5014955;28;20182;-65
2022/03/21 00:05:52;;;;;;;29.23;14.33;;;0.30;72.90;;;;;;5015086;28;20208;-64
2022/03/21 00:08:22;;;;;;;33.53;14.63;;;0.30;73.20;;;;;;5013533;28;20198;-65
2022/03/21 00:10:48;;;;;;;30.70;14.80;;;0.20;73.40;;;;;;5014835;28;20553;-64
2022/03/21 00:13:15;;;;;;;31.10;14.37;;;0.10;73.60;;;;;;5014818;28;20210;-64
2022/03/21 00:15:42;;;;;;;29.30;14.90;;;0.00;74.10;;;;;;5015111;28;20195;-66
2022/03/21 00:18:08;;;;;;;33.83;13.97;;;-0.10;74.30;;;;;;5015057;28;20190;-65
2022/03/21 00:20:34;;;;;;;34.50;15.27;;;0.00;74.30;;;;;;5015048;28;20281;-65
2022/03/21 00:23:01;;;;;;;29.47;14.00;;;0.00;74.50;;;;;;5014808;28;20198;-66
2022/03/21 00:25:27;;;;;;;26.30;13.40;;;0.00;75.30;;;;;;5013519;28;20612;-66
2022/03/21 00:27:53;;;;;;;29.50;15.00;;;-0.10;74.80;;;;;;5014862;28;20184;-64
2022/03/21 00:30:19;;;;;;;29.23;13.87;;;-0.10;75.00;;;;;;5014434;28;20210;-66
2022/03/21 00:32:46;;;;;;;29.03;14.63;;;-0.10;75.20;;;;;;5013690;28;20628;-65
2022/03/21 00:35:15;;;;;;;31.80;14.60;;;-0.10;75.30;;;;;;5016898;28;20180;-65
2022/03/21 00:37:42;;;;;;;31.17;14.27;;;-0.10;75.50;;;;;;5034224;28;20233;-65
2022/03/21 00:40:09;;;;;;;29.23;13.30;;;-0.20;75.50;;;;;;5033893;28;20232;-65
2022/03/21 00:42:39;;;;;;;29.90;13.20;;;-0.10;75.70;;;;;;5034247;28;20191;-66
2022/03/21 00:45:09;;;;;;;30.47;12.80;;;-0.10;75.50;;;;;;5033705;28;21986;-64
2022/03/21 00:47:35;;;;;;;29.87;13.73;;;-0.10;75.50;;;;;;5033948;28;20213;-65
2022/03/21 00:50:01;;;;;;;32.40;14.40;;;0.00;75.50;;;;;;5034138;28;20175;-64
2022/03/21 00:52:28;;;;;;;29.27;13.77;;;0.00;75.40;;;;;;5033303;28;20228;-65
2022/03/21 00:54:55;;;;;;;26.07;12.53;;;0.00;75.60;;;;;;5034385;28;20183;-65
2022/03/21 00:57:20;;;;;;;24.97;11.93;;;0.10;75.70;;;;;;5033765;28;20242;-65
2022/03/21 00:59:46;;;;;;;27.57;12.53;;;0.10;75.80;;;;;;4999972;28;20183;-65
2022/03/21 01:02:12;;;;;;;31.00;13.27;;;0.00;75.70;;;;;;5033733;28;20619;-65
2022/03/21 01:04:39;;;;;;;28.03;13.13;;;0.00;75.90;;;;;;5033784;28;20249;-65
2022/03/21 01:07:05;;;;;;;27.40;12.70;;;0.00;76.10;;;;;;5033702;28;20175;-62
2022/03/21 01:09:31;;;;;;;26.07;12.13;;;0.00;76.20;;;;;;5015781;28;20642;-64
2022/03/21 01:11:57;;;;;;;30.67;13.07;;;0.00;76.30;;;;;;5033691;28;20183;-64
2022/03/21 01:14:22;;;;;;;24.10;11.30;;;0.10;76.50;;;;;;5033123;28;20577;-64
2022/03/21 01:16:50;;;;;;;22.40;11.97;;;0.10;76.80;;;;;;5033886;28;20191;-65
2022/03/21 01:19:15;;;;;;;28.70;11.93;;;0.00;77.00;;;;;;5033326;28;20182;-64
2022/03/21 01:21:41;;;;;;;24.50;11.50;;;0.00;77.00;;;;;;5033736;28;20941;-65
2022/03/21 01:24:07;;;;;;;28.37;12.67;;;0.10;77.10;;;;;;5033039;28;20191;-64
2022/03/21 01:26:33;;;;;;;28.47;13.27;;;0.10;77.10;;;;;;5033419;28;20207;-64
2022/03/21 01:28:58;;;;;;;27.00;13.17;;;0.10;77.20;;;;;;5033479;28;20210;-65
2022/03/21 01:31:24;;;;;;;28.83;13.13;;;0.00;77.40;;;;;;5015223;28;20191;-65
2022/03/21 01:33:51;;;;;;;24.57;12.90;;;0.00;77.60;;;;;;5033327;28;20179;-65
2022/03/21 01:36:16;;;;;;;31.27;13.30;;;0.00;78.00;;;;;;5021530;28;20269;-65
2022/03/21 01:38:42;;;;;;;29.83;12.03;;;0.00;78.10;;;;;;5012030;28;20187;-65
2022/03/21 01:41:08;;;;;;;28.40;12.50;;;-0.10;78.20;;;;;;5013118;28;20545;-65
2022/03/21 01:43:57;;;;;;;25.63;12.30;;;-0.10;78.40;;;;;;5013392;28;20183;-68
2022/03/21 01:46:24;;;;;;;27.13;12.27;;;-0.20;78.80;;;;;;5012798;28;20219;-66
2022/03/21 01:48:50;;;;;;;24.83;12.43;;;-0.20;79.20;;;;;;5011664;28;20234;-65
2022/03/21 01:51:16;;;;;;;25.53;12.60;;;-0.10;79.00;;;;;;5012813;28;20230;-68
2022/03/21 01:56:27;;;;;;;27.00;12.27;;;-0.10;79.10;;;;;;5012959;28;20226;-67
2022/03/21 01:58:53;;;;;;;21.63;11.17;;;-0.10;79.10;;;;;;5013096;28;20620;-65
2022/03/21 02:01:19;;;;;;;23.13;11.93;;;-0.10;79.50;;;;;;5012758;28;20184;-65
2022/03/21 02:03:45;;;;;;;25.40;12.63;;;-0.20;79.50;;;;;;5011433;28;20187;-65
2022/03/21 02:06:12;;;;;;;24.97;11.93;;;-0.30;79.80;;;;;;5012681;28;20539;-65
2022/03/21 02:08:37;;;;;;;26.37;11.07;;;-0.30;80.20;;;;;;5011518;28;20187;-65
2022/03/21 02:11:05;;;;;;;28.23;12.83;;;-0.30;80.30;;;;;;5011598;28;20533;-65
2022/03/21 02:13:31;;;;;;;21.93;11.10;;;-0.30;80.60;;;;;;5012339;28;20624;-65
2022/03/21 02:15:58;;;;;;;22.47;12.07;;;-0.30;80.80;;;;;;5012398;28;20545;-65
2022/03/21 02:18:25;;;;;;;25.27;11.60;;;-0.30;81.20;;;;;;5012469;28;20190;-65
2022/03/21 02:20:53;;;;;;;22.33;11.63;;;-0.30;81.10;;;;;;5012751;28;20535;-65
2022/03/21 02:23:41;;;;;;;20.50;10.10;;;-0.30;81.20;;;;;;5012213;28;20328;-65
2022/03/21 02:26:12;;;;;;;30.30;11.73;;;-0.30;81.20;;;;;;5012496;28;20195;-65
2022/03/21 02:28:40;;;;;;;29.07;12.60;;;-0.30;81.30;;;;;;5012743;28;20183;-66
2022/03/21 02:31:06;;;;;;;25.10;11.27;;;-0.30;81.70;;;;;;5012483;28;20241;-66
2022/03/21 02:33:32;;;;;;;22.63;11.87;;;-0.40;81.80;;;;;;5012280;28;20285;-64
2022/03/21 02:35:59;;;;;;;25.30;11.97;;;-0.50;82.50;;;;;;5021477;28;20194;-64
2022/03/21 02:38:25;;;;;;;25.97;12.27;;;-0.60;83.10;;;;;;5032234;28;20189;-63
2022/03/21 02:40:51;;;;;;;29.27;11.67;;;-0.60;83.70;;;;;;5031752;28;20193;-65
2022/03/21 02:43:17;;;;;;;24.83;11.27;;;-0.60;83.70;;;;;;5031384;28;20269;-64
2022/03/21 02:45:43;;;;;;;23.00;11.50;;;-0.50;83.70;;;;;;5031765;28;20264;-66
2022/03/21 02:48:13;;;;;;;23.80;11.40;;;-0.50;83.70;;;;;;5031971;28;20643;-65
2022/03/21 02:50:46;;;;;;;27.80;12.53;;;-0.50;83.90;;;;;;5032011;28;20252;-65
2022/03/21 02:53:12;;;;;;;21.60;11.07;;;-0.60;84.10;;;;;;5031922;28;20155;-64
2022/03/21 02:55:41;;;;;;;23.53;11.50;;;-0.60;84.30;;;;;;5031343;28;20643;-65
2022/03/21 02:58:07;;;;;;;24.93;11.87;;;-0.60;84.90;;;;;;5031898;28;20602;-65
2022/03/21 03:00:33;;;;;;;24.00;11.57;;;-0.50;85.10;;;;;;5031619;28;20623;-65
2022/03/21 03:02:58;;;;;;;21.00;11.50;;;-0.60;84.70;;;;;;5032252;28;20626;-65
2022/03/21 03:05:24;;;;;;;25.70;11.47;;;-0.50;84.80;;;;;;5013620;28;20210;-64
2022/03/21 03:07:50;;;;;;;27.10;11.93;;;-0.50;84.70;;;;;;5014400;28;20213;-66
2022/03/21 03:10:16;;;;;;;23.90;10.80;;;-0.50;84.90;;;;;;5013454;28;20190;-64
2022/03/21 03:12:42;;;;;;;27.13;10.63;;;-0.50;84.70;;;;;;5031649;28;20224;-64
2022/03/21 03:15:08;;;;;;;24.63;10.73;;;-0.50;84.80;;;;;;5031710;28;20182;-65
2022/03/21 03:17:34;;;;;;;25.50;12.07;;;-0.50;85.00;;;;;;5031257;28;20544;-65
2022/03/21 03:20:00;;;;;;;24.87;11.17;;;-0.50;85.30;;;;;;5013957;28;20183;-65
2022/03/21 03:22:26;;;;;;;27.00;10.93;;;-0.50;85.30;;;;;;5031420;28;20175;-65
2022/03/21 03:24:52;;;;;;;23.77;11.43;;;-0.50;85.30;;;;;;5031618;28;20210;-65
2022/03/21 03:27:18;;;;;;;24.50;11.90;;;-0.40;85.10;;;;;;5030884;28;20183;-66
2022/03/21 03:29:44;;;;;;;22.07;11.00;;;-0.40;85.10;;;;;;5031496;28;20281;-65
2022/03/21 03:32:10;;;;;;;19.10;9.97;;;-0.40;85.00;;;;;;5013759;28;20215;-65
2022/03/21 03:34:36;;;;;;;26.27;11.27;;;-0.40;85.00;;;;;;5031244;28;20198;-64
2022/03/21 03:37:02;;;;;;;26.20;11.63;;;-0.40;85.30;;;;;;5013645;28;20340;-65
2022/03/21 03:39:29;;;;;;;19.43;10.53;;;-0.50;85.90;;;;;;5011538;28;20183;-65
2022/03/21 03:41:55;;;;;;;26.03;10.63;;;-0.60;86.10;;;;;;5011577;28;20178;-65
2022/03/21 03:44:23;;;;;;;25.60;10.57;;;-0.70;86.40;;;;;;5011519;28;20180;-65
2022/03/21 03:46:49;;;;;;;25.40;10.60;;;-0.70;86.70;;;;;;5011723;28;20230;-65
2022/03/21 03:49:15;;;;;;;21.40;10.60;;;-0.70;87.00;;;;;;5011058;28;20242;-64
2022/03/21 03:51:40;;;;;;;24.57;12.13;;;-0.70;87.20;;;;;;5010379;28;20188;-65
2022/03/21 03:54:06;;;;;;;20.97;9.80;;;-0.80;87.50;;;;;;5011539;28;20231;-65
2022/03/21 03:56:32;;;;;;;23.87;10.47;;;-0.90;88.10;;;;;;5011206;28;20272;-66
2022/03/21 03:58:57;;;;;;;21.93;9.60;;;-0.90;88.30;;;;;;5011770;28;20187;-65
2022/03/21 04:01:23;;;;;;;24.47;9.33;;;-0.90;88.60;;;;;;5011389;28;20190;-65
2022/03/21 04:03:49;;;;;;;19.20;9.63;;;-0.80;88.50;;;;;;5011606;28;20183;-65
2022/03/21 04:06:17;;;;;;;20.03;8.80;;;-0.80;88.10;;;;;;5011382;28;20603;-63
2022/03/21 04:08:45;;;;;;;26.43;10.63;;;-0.70;88.20;;;;;;5014499;28;20320;-64
2022/03/21 04:11:11;;;;;;;20.23;10.33;;;-0.70;88.30;;;;;;5013601;28;20186;-64
2022/03/21 04:13:37;;;;;;;19.10;10.03;;;-0.80;88.70;;;;;;5014861;28;20183;-65
2022/03/21 04:16:04;;;;;;;21.03;9.83;;;-0.70;88.80;;;;;;5013490;28;20187;-65
2022/03/21 04:18:29;;;;;;;22.47;9.73;;;-0.70;88.90;;;;;;5014659;28;20187;-65
2022/03/21 04:20:56;;;;;;;22.77;9.87;;;-0.70;89.20;;;;;;5014817;28;20290;-64
2022/03/21 04:23:21;;;;;;;28.97;10.83;;;-0.70;89.70;;;;;;5013776;28;20571;-65
2022/03/21 04:25:48;;;;;;;19.23;10.20;;;-0.80;89.50;;;;;;5014573;28;20245;-65
2022/03/21 04:28:14;;;;;;;25.20;9.97;;;-0.70;89.70;;;;;;5014475;28;20274;-66
2022/03/21 04:30:41;;;;;;;21.10;10.60;;;-0.70;89.60;;;;;;5013951;28;20657;-65
2022/03/21 04:33:14;;;;;;;22.20;9.83;;;-0.70;89.70;;;;;;5014247;28;20221;-65
2022/03/21 04:35:41;;;;;;;21.40;9.83;;;-0.70;90.00;;;;;;5020270;28;20184;-64
2022/03/21 04:38:13;;;;;;;24.53;11.37;;;-0.70;90.00;;;;;;5034119;28;20182;-65
2022/03/21 04:40:48;;;;;;;22.17;10.13;;;-0.70;90.40;;;;;;5017039;28;20174;-67
2022/03/21 04:43:16;;;;;;;21.47;9.43;;;-0.70;90.30;;;;;;5016285;28;20184;-66
2022/03/21 04:45:43;;;;;;;25.43;11.03;;;-0.60;90.20;;;;;;5033821;28;20226;-65
2022/03/21 04:48:10;;;;;;;26.40;10.33;;;-0.50;90.80;;;;;;5033500;28;20245;-65
2022/03/21 04:50:36;;;;;;;24.57;10.67;;;-0.50;90.30;;;;;;5033579;28;20201;-65
2022/03/21 04:53:02;;;;;;;22.43;10.57;;;-0.50;90.10;;;;;;5016058;28;20186;-66
2022/03/21 04:55:28;;;;;;;22.97;10.03;;;-0.40;90.00;;;;;;5033482;28;20680;-66
2022/03/21 04:57:54;;;;;;;28.43;10.73;;;-0.40;90.00;;;;;;5015604;28;20187;-65
2022/03/21 05:00:21;;;;;;;22.93;10.33;;;-0.30;90.00;;;;;;5033126;28;20798;-64
2022/03/21 05:02:46;;;;;;;20.57;10.80;;;-0.30;89.70;;;;;;5033524;28;20442;-64
2022/03/21 05:05:12;;;;;;;20.27;8.30;;;-0.20;89.60;;;;;;5015798;28;20210;-64
2022/03/21 05:07:45;;;;;;;23.63;10.53;;;-0.10;89.30;;;;;;5033283;28;20187;-67
2022/03/21 05:10:14;;;;;;;20.67;10.50;;;0.00;89.10;;;;;;5033178;28;20262;-65
2022/03/21 05:12:40;;;;;;;31.97;10.93;;;0.00;89.00;;;;;;5032451;28;20182;-65
2022/03/21 05:15:07;;;;;;;27.97;11.40;;;0.10;89.00;;;;;;5033122;28;20194;-66
2022/03/21 05:17:38;;;;;;;23.87;10.50;;;0.10;88.90;;;;;;5032477;28;20186;-65
2022/03/21 05:20:12;;;;;;;23.20;9.83;;;0.20;88.70;;;;;;5032157;28;20185;-65
2022/03/21 05:22:38;;;;;;;23.33;10.10;;;0.30;88.20;;;;;;5032594;28;20162;-66
2022/03/21 05:36:01;;;;;;;22.97;10.17;;;0.70;87.00;;;;;;5023053;28;20568;-65
2022/03/21 05:38:29;;;;;;;19.07;9.53;;;0.80;86.70;;;;;;5011242;28;20179;-67
2022/03/21 05:40:59;;;;;;;24.73;10.03;;;0.80;86.20;;;;;;5012509;28;20501;-65
2022/03/21 05:43:27;;;;;;;29.00;9.33;;;0.80;86.30;;;;;;5012043;28;20620;-66
2022/03/21 05:45:53;;;;;;;21.03;8.87;;;0.90;86.10;;;;;;5011753;28;20218;-65
2022/03/21 05:51:04;;;;;;;20.83;9.37;;;1.00;85.80;;;;;;5012134;28;20218;-65
2022/03/21 05:53:30;;;;;;;21.00;9.50;;;1.10;85.30;;;;;;5011423;28;20186;-65
2022/03/21 05:56:00;;;;;;;24.60;10.60;;;1.20;85.00;;;;;;5011765;28;20267;-66
2022/03/21 05:58:29;;;;;;;24.17;9.70;;;1.20;85.10;;;;;;5011398;28;20191;-66
2022/03/21 06:00:55;;;;;;;21.73;7.80;;;1.30;85.10;;;;;;5021518;28;20199;-65
2022/03/21 06:03:21;;;;;;;19.23;9.93;;;1.40;85.00;;;;;;5031513;28;20245;-62
2022/03/21 06:05:47;;;;;;;22.23;9.60;;;1.50;85.00;;;;;;5031411;28;20206;-60
2022/03/21 06:08:13;;;;;;;16.07;7.27;;;1.60;84.90;;;;;;5031043;28;20183;-60
2022/03/21 06:10:39;;;;;;;23.40;11.50;;;1.60;84.40;;;;;;5013237;28;20618;-60
2022/03/21 06:13:05;;;;;;;23.60;10.60;;;1.70;84.40;;;;;;5027302;28;20175;-63
2022/03/21 06:15:35;;;;;;;20.13;9.70;;;1.80;84.20;;;;;;5021207;28;20547;-63
2022/03/21 06:18:02;;;;;;;24.83;11.83;;;1.80;85.00;;;;;;5019820;28;20656;-65
2022/03/21 06:20:28;;;;;;;28.23;9.80;;;1.80;84.10;;;;;;5020819;28;20206;-63
2022/03/21 06:22:57;;;;;;;24.37;10.83;;;1.90;84.10;;;;;;5019990;28;20276;-63
2022/03/21 06:25:23;;;;;;;29.33;10.47;;;2.00;84.00;;;;;;5019821;28;20208;-62
2022/03/21 06:27:49;;;;;;;30.33;10.40;;;2.00;83.70;;;;;;5002846;28;20266;-63
2022/03/21 06:30:15;;;;;;;36.17;12.70;;;2.10;83.90;;;;;;5001647;28;20634;-63
2022/03/21 06:32:41;;;;;;;35.60;14.40;;;2.20;84.00;;;;;;5019413;28;20271;-63
2022/03/21 06:35:11;;;;;;;43.50;16.63;;;2.30;84.00;;;;;;5020235;28;20287;-63
2022/03/21 06:37:38;;;;;;;40.87;18.07;;;2.40;83.60;;;;;;5019308;28;20184;-63
2022/03/21 06:40:05;;;;;;;31.50;13.63;;;2.50;82.90;;;;;;5021155;28;20180;-61
2022/03/21 06:42:31;;;;;;;31.33;15.40;;;2.60;82.80;;;;;;5019156;28;20186;-60
2022/03/21 06:44:57;;;;;;;27.63;13.03;;;2.70;82.40;;;;;;5005157;28;20290;-62
2022/03/21 06:47:23;;;;;;;24.73;12.20;;;2.80;81.90;;;;;;5020062;28;20198;-63
2022/03/21 06:49:49;;;;;;;21.03;10.47;;;2.80;81.90;;;;;;5019129;28;20241;-62
2022/03/21 06:52:18;;;;;;;28.50;13.50;;;2.90;81.90;;;;;;5019999;28;20262;-62
2022/03/21 06:54:46;;;;;;;30.80;14.33;;;3.00;81.80;;;;;;5019386;28;20244;-61
2022/03/21 06:57:12;;;;;;;34.17;12.83;;;3.10;81.20;;;;;;5019357;28;20617;-62
2022/03/21 06:59:38;;;;;;;30.37;12.40;;;3.10;81.20;;;;;;4984491;28;20707;-62
2022/03/21 07:02:07;;;;;;;21.47;10.63;;;3.20;81.20;;;;;;5020357;28;20238;-61
2022/03/21 07:04:33;;;;;;;32.20;14.33;;;3.30;80.70;;;;;;5018648;28;20222;-65
2022/03/21 07:06:59;;;;;;;39.40;20.27;;;3.30;80.50;;;;;;5021675;28;20704;-65
2022/03/21 07:09:25;;;;;;;27.87;11.67;;;3.40;80.30;;;;;;5018113;28;20216;-63
2022/03/21 07:11:52;;;;;;;22.30;10.77;;;3.50;80.30;;;;;;5020423;28;20272;-64
2022/03/21 07:14:18;;;;;;;23.77;10.47;;;3.60;80.20;;;;;;5020060;28;20627;-63
2022/03/21 07:16:44;;;;;;;23.97;10.93;;;3.70;80.10;;;;;;5019523;28;20307;-67
2022/03/21 07:19:10;;;;;;;19.17;8.83;;;3.80;79.90;;;;;;5020334;28;20337;-62
2022/03/21 07:21:36;;;;;;;23.90;11.57;;;3.90;79.70;;;;;;5020160;28;20660;-66
2022/03/21 07:24:01;;;;;;;25.37;11.13;;;4.00;79.80;;;;;;5019534;28;20190;-63
2022/03/21 07:26:27;;;;;;;27.50;12.77;;;4.10;80.00;;;;;;5019903;28;20261;-64
2022/03/21 07:28:53;;;;;;;28.80;12.63;;;4.10;79.70;;;;;;5019242;28;20642;-68
2022/03/21 07:31:19;;;;;;;25.60;11.60;;;4.20;79.90;;;;;;5002039;28;20647;-72
2022/03/21 07:33:45;;;;;;;24.20;11.10;;;4.30;79.10;;;;;;5019568;28;20198;-64
2022/03/21 07:36:11;;;;;;;27.33;11.63;;;4.50;78.10;;;;;;5020004;28;20535;-64
2022/03/21 07:38:37;;;;;;;30.57;12.17;;;4.60;78.10;;;;;;5019293;28;20651;-64
2022/03/21 07:41:07;;;;;;;25.53;11.77;;;4.60;77.60;;;;;;5019518;28;20280;-66
2022/03/21 07:43:34;;;;;;;29.23;11.50;;;4.60;77.30;;;;;;5021514;28;20241;-67
2022/03/21 07:48:44;;;;;;;23.93;10.87;;;4.90;77.60;;;;;;5022896;28;20237;-68
2022/03/21 07:51:12;;;;;;;27.45;12.60;;;5.00;76.40;;;;;;5023265;28;20766;-64
2022/03/21 07:53:38;;;;;;;27.07;10.10;;;5.00;75.90;;;;;;5023310;28;20182;-62
2022/03/21 07:56:04;;;;;;;20.43;10.33;;;5.20;76.10;;;;;;5023857;28;20260;-61
2022/03/21 07:58:33;;;;;;;28.05;14.27;;;5.30;75.70;;;;;;5021045;28;20404;-61
2022/03/21 08:01:00;;;;;;;26.73;12.37;;;5.40;75.40;;;;;;5023157;28;20195;-59
2022/03/21 08:03:27;;;;;;;25.27;12.43;;;5.60;75.90;;;;;;5022602;28;20556;-63
2022/03/21 08:05:53;;;;;;;29.37;12.30;;;5.80;75.20;;;;;;5022486;28;20202;-67
2022/03/21 08:08:20;;;;;;;25.07;11.93;;;5.90;74.00;;;;;;5021080;28;20212;-64
2022/03/21 08:10:46;;;;;;;30.07;11.27;;;5.90;73.70;;;;;;5021684;28;20578;-54
2022/03/21 08:13:17;;;;;;;22.57;11.60;;;6.00;73.50;;;;;;5022004;28;20185;-66
2022/03/21 08:15:44;;;;;;;22.40;10.63;;;6.00;73.40;;;;;;5021751;28;20200;-62
2022/03/21 08:18:11;;;;;;;25.37;10.93;;;6.00;73.10;;;;;;5021857;28;20188;-66
2022/03/21 08:20:39;;;;;;;23.73;10.77;;;6.20;73.00;;;;;;5022307;28;20306;-60
2022/03/21 08:23:12;;;;;;;28.00;13.13;;;6.30;72.30;;;;;;5022016;28;20211;-62
2022/03/21 08:25:40;;;;;;;22.70;10.77;;;6.40;72.20;;;;;;5022736;28;20236;-64
2022/03/21 08:28:07;;;;;;;19.47;9.13;;;6.50;71.40;;;;;;5021690;28;20228;-66
2022/03/21 08:30:35;;;;;;;23.70;9.40;;;6.60;70.40;;;;;;5022611;28;21089;-69
2022/03/21 08:33:02;;;;;;;21.20;8.67;;;6.70;69.60;;;;;;5021267;28;20183;-66
2022/03/21 08:35:28;;;;;;;21.00;9.67;;;6.80;69.40;;;;;;5021443;28;20747;-64
2022/03/21 08:37:54;;;;;;;22.00;9.93;;;6.90;69.40;;;;;;5003945;28;20186;-63
2022/03/21 08:40:20;;;;;;;21.50;10.13;;;7.10;68.70;;;;;;5021101;28;20252;-66
2022/03/21 08:42:47;;;;;;;18.40;7.90;;;7.30;68.50;;;;;;5020771;28;20199;-69
2022/03/21 08:45:13;;;;;;;20.77;7.80;;;7.30;67.00;;;;;;5020586;28;20225;-65
2022/03/21 08:47:40;;;;;;;19.37;8.70;;;7.40;66.20;;;;;;5002367;28;21060;-62
2022/03/21 08:50:06;;;;;;;16.60;7.97;;;7.50;63.00;;;;;;5020621;28;20200;-61
2022/03/21 08:52:32;;;;;;;19.73;8.97;;;7.70;62.00;;;;;;5021382;28;20195;-64
2022/03/21 08:54:59;;;;;;;19.60;8.37;;;7.80;61.10;;;;;;5020976;28;20195;-66
2022/03/21 08:57:24;;;;;;;20.23;8.80;;;7.90;60.40;;;;;;5021837;28;20198;-68
2022/03/21 08:59:52;;;;;;;19.13;8.00;;;8.00;59.90;;;;;;5021155;28;20190;-62
2022/03/21 09:02:18;;;;;;;14.90;8.27;;;8.10;59.30;;;;;;5022176;28;20203;-64
2022/03/21 09:04:45;;;;;;;19.87;9.13;;;8.20;57.50;;;;;;5021538;28;20597;-62
2022/03/21 09:07:13;;;;;;;16.17;8.40;;;8.30;57.00;;;;;;4988400;28;20271;-63
2022/03/21 09:09:39;;;;;;;19.97;9.07;;;8.40;56.60;;;;;;5020237;28;20611;-63
2022/03/21 09:12:05;;;;;;;17.57;8.57;;;8.50;56.50;;;;;;5020737;28;20280;-65
2022/03/21 09:14:31;;;;;;;17.63;8.50;;;8.60;55.80;;;;;;5020976;28;20517;-63
2022/03/21 09:16:57;;;;;;;14.40;7.70;;;8.50;55.30;;;;;;5020808;28;20253;-67
2022/03/21 09:19:23;;;;;;;22.77;8.90;;;8.40;55.20;;;;;;5020177;28;20655;-66
2022/03/21 09:21:50;;;;;;;20.97;9.30;;;8.60;55.10;;;;;;5003522;28;20261;-71
2022/03/21 09:24:17;;;;;;;28.30;11.17;;;8.80;54.70;;;;;;5021714;28;20297;-65
2022/03/21 09:26:42;;;;;;;18.03;9.30;;;8.90;53.30;;;;;;5020434;28;20219;-62
2022/03/21 09:29:09;;;;;;;32.10;12.20;;;8.90;53.10;;;;;;5003300;28;20562;-65
2022/03/21 09:31:36;;;;;;;19.60;11.90;;;8.90;52.60;;;;;;5021423;28;20273;-62
2022/03/21 09:34:02;;;;;;;35.97;13.43;;;9.00;52.70;;;;;;5002813;28;20193;-60
2022/03/21 09:36:28;;;;;;;27.87;13.33;;;9.10;52.40;;;;;;5003142;28;20206;-63
2022/03/21 09:38:54;;;;;;;20.93;11.73;;;9.10;51.90;;;;;;5002626;28;20184;-62
2022/03/21 09:41:28;;;;;;;22.77;13.30;;;9.10;51.80;;;;;;5021502;28;20223;-63
2022/03/21 09:43:56;;;;;;;26.10;13.47;;;9.00;51.60;;;;;;5020869;28;20590;-63
2022/03/21 09:46:22;;;;;;;27.70;14.33;;;9.00;51.80;;;;;;5020297;28;20231;-62
2022/03/21 09:48:49;;;;;;;31.70;15.10;;;9.00;51.70;;;;;;5020051;28;20230;-64
2022/03/21 09:51:29;;;;;;;27.27;13.60;;;9.20;51.90;;;;;;5002233;28;20193;-67
2022/03/21 09:53:56;;;;;;;26.53;10.93;;;9.40;51.30;;;;;;5020250;28;20184;-62
2022/03/21 09:56:23;;;;;;;20.10;10.43;;;9.50;51.60;;;;;;5020084;28;20538;-64
2022/03/21 09:58:49;;;;;;;35.43;12.53;;;9.60;51.80;;;;;;5019798;28;20199;-63
2022/03/21 10:01:16;;;;;;;19.70;9.97;;;9.60;51.60;;;;;;5021108;28;20188;-60
2022/03/21 10:03:42;;;;;;;21.03;10.23;;;9.50;51.40;;;;;;5021099;28;20192;-60
2022/03/21 10:06:30;;;;;;;21.33;10.57;;;9.50;51.50;;;;;;5019471;28;20273;-62
2022/03/21 10:09:06;;;;;;;22.77;9.77;;;9.60;51.10;;;;;;5019923;28;20192;-61
2022/03/21 10:11:34;;;;;;;18.50;9.57;;;9.70;50.90;;;;;;5020561;28;20201;-62
2022/03/21 10:14:36;;;;;;;22.23;10.97;;;9.70;50.60;;;;;;5002833;28;20199;-61
2022/03/21 10:17:11;;;;;;;18.23;9.10;;;9.70;50.40;;;;;;5019767;28;20210;-64
2022/03/21 10:19:46;;;;;;;34.57;15.47;;;9.60;50.50;;;;;;5020147;28;20250;-64
2022/03/21 10:22:15;;;;;;;24.30;13.47;;;9.70;50.40;;;;;;5020035;28;20266;-64
2022/03/21 10:24:45;;;;;;;34.03;16.57;;;9.70;50.40;;;;;;5020006;28;20187;-64
2022/03/21 10:27:28;;;;;;;36.97;19.37;;;9.70;50.50;;;;;;5021195;28;20660;-61
2022/03/21 10:30:00;;;;;;;32.80;15.50;;;9.60;50.20;;;;;;5001285;28;20188;-62
2022/03/21 10:32:37;;;;;;;16.37;8.50;;;9.60;50.10;;;;;;5002707;28;20484;-63
2022/03/21 10:35:07;;;;;;;16.87;8.43;;;9.80;50.20;;;;;;5001349;28;20647;-62
2022/03/21 10:37:45;;;;;;;15.33;7.83;;;9.90;49.70;;;;;;5019386;28;20194;-63
2022/03/21 10:40:22;;;;;;;15.63;8.47;;;10.20;49.30;;;;;;5019498;28;20217;-61
2022/03/21 10:42:56;;;;;;;15.93;7.33;;;10.20;49.20;;;;;;5019603;28;20217;-62
2022/03/21 10:45:49;;;;;;;17.57;8.83;;;10.40;48.80;;;;;;5018576;28;20232;-61
2022/03/21 10:48:29;;;;;;;18.17;7.07;;;10.30;48.40;;;;;;5005460;28;20245;-62
2022/03/21 10:50:56;;;;;;;15.40;7.27;;;10.20;48.20;;;;;;5019616;28;20218;-63
2022/03/21 10:53:23;;;;;;;17.13;7.87;;;10.20;48.30;;;;;;5019548;28;20194;-62
2022/03/21 10:55:53;;;;;;;16.07;7.67;;;10.30;47.90;;;;;;5019499;28;20187;-62
2022/03/21 10:58:42;;;;;;;15.63;7.23;;;10.40;47.00;;;;;;5019541;28;20270;-61
2022/03/21 11:01:23;;;;;;;12.60;6.40;;;10.40;46.90;;;;;;5017825;28;20190;-61
2022/03/21 11:03:55;;;;;;;22.70;7.10;;;10.50;46.60;;;;;;5019654;28;20200;-62
2022/03/21 11:06:20;;;;;;;11.73;5.43;;;10.60;47.00;;;;;;5018539;28;20333;-63
2022/03/21 11:08:50;;;;;;;13.17;5.47;;;10.70;46.90;;;;;;5019466;28;20368;-62
2022/03/21 11:11:16;;;;;;;14.23;6.37;;;10.70;46.30;;;;;;5018970;28;20281;-64
2022/03/21 11:13:42;;;;;;;13.77;6.27;;;10.80;46.30;;;;;;4985483;28;20195;-66
2022/03/21 11:16:09;;;;;;;13.20;6.23;;;11.00;46.20;;;;;;5020195;28;20187;-62
2022/03/21 11:18:35;;;;;;;15.73;5.80;;;11.20;46.50;;;;;;5004285;28;20205;-64
2022/03/21 11:21:01;;;;;;;13.53;5.23;;;11.40;46.30;;;;;;5022370;28;20194;-66
2022/03/21 11:23:28;;;;;;;17.73;6.87;;;11.00;45.20;;;;;;5023708;28;20236;-66
2022/03/21 11:26:01;;;;;;;14.27;6.13;;;10.90;45.70;;;;;;5021951;28;20207;-63
2022/03/21 11:28:41;;;;;;;13.10;5.63;;;11.00;45.80;;;;;;5022931;28;20180;-63
2022/03/21 11:31:19;;;;;;;11.90;5.90;;;11.00;45.00;;;;;;5022712;28;20317;-63
2022/03/21 11:34:03;;;;;;;10.83;5.30;;;11.10;45.40;;;;;;5023406;28;20207;-62
2022/03/21 11:36:31;;;;;;;12.87;5.77;;;11.40;44.80;;;;;;5022393;28;20974;-62
2022/03/21 11:39:00;;;;;;;13.23;5.07;;;11.60;44.40;;;;;;5022530;28;20315;-64
2022/03/21 11:41:28;;;;;;;11.67;4.70;;;11.80;43.40;;;;;;5021891;28;20264;-61
2022/03/21 11:44:06;;;;;;;12.87;5.13;;;11.90;43.30;;;;;;5021799;28;20186;-62
2022/03/21 11:46:39;;;;;;;13.60;5.60;;;12.20;42.90;;;;;;5023831;28;20230;-61
2022/03/21 11:49:28;;;;;;;23.97;5.53;;;12.30;42.80;;;;;;5022270;28;20261;-63
2022/03/21 11:51:58;;;;;;;19.80;7.80;;;12.50;42.60;;;;;;5012717;28;20215;-61
2022/03/21 11:54:36;;;;;;;21.13;6.87;;;13.50;41.90;;;;;;5005752;28;20212;-72
2022/03/21 11:57:16;;;;;;;12.70;5.80;;;15.20;40.30;;;;;;5022357;28;20274;-73
2022/03/21 11:59:41;;;;;;;16.03;6.90;;;16.70;37.30;;;;;;5023139;28;20186;-75
2022/03/21 12:02:10;;;;;;;16.07;7.53;;;17.70;36.00;;;;;;5013359;28;20241;-72
2022/03/21 12:04:37;;;;;;;15.43;7.77;;;18.00;34.50;;;;;;5023245;28;20187;-71
2022/03/21 12:07:12;;;;;;;15.87;7.83;;;17.70;35.10;;;;;;5022335;28;20221;-72
2022/03/21 12:09:48;;;;;;;19.37;7.57;;;18.00;34.60;;;;;;5022621;28;20263;-75
2022/03/21 12:12:15;;;;;;;26.70;8.17;;;18.20;33.90;;;;;;5005494;28;20221;-74
2022/03/21 12:14:54;;;;;;;17.20;7.60;;;18.50;33.30;;;;;;5021941;28;20183;-72
2022/03/21 12:17:26;;;;;;;25.93;10.93;;;19.10;32.90;;;;;;5022836;28;20202;-72
2022/03/21 12:19:54;;;;;;;24.70;8.63;;;19.50;32.60;;;;;;5023233;28;20217;-71
2022/03/21 12:25:01;;;;;;;22.70;10.23;;;19.80;31.40;;;;;;5022910;28;20187;-62
2022/03/21 12:27:41;;;;;;;28.17;10.65;;;20.50;31.50;;;;;;5005174;28;20203;-61
2022/03/21 12:30:35;;;;;;;16.77;8.10;;;21.40;30.20;;;;;;5022357;28;20292;-58
2022/03/21 12:33:06;;;;;;;21.38;10.48;;;21.60;29.50;;;;;;5019088;28;20307;-62
2022/03/21 12:35:32;;;;;;;25.77;10.98;;;21.20;29.70;;;;;;5022506;28;20187;-61
2022/03/21 12:38:07;;;;;;;17.25;9.30;;;21.00;29.70;;;;;;5021337;28;20182;-61
2022/03/21 12:40:54;;;;;;;19.92;9.80;;;21.40;29.40;;;;;;5022682;28;20506;-61
2022/03/21 12:43:28;;;;;;;28.10;9.98;;;21.30;29.40;;;;;;5021532;28;20224;-61
2022/03/21 12:46:09;;;;;;;19.63;10.00;;;20.10;29.80;;;;;;5021867;28;20221;-61
2022/03/21 12:48:52;;;;;;;18.53;10.33;;;18.80;30.90;;;;;;5021898;28;20253;-61
2022/03/21 12:51:55;;;;;;;26.63;11.37;;;18.10;32.00;;;;;;5021421;28;20198;-63
2022/03/21 12:54:24;;;;;;;26.90;10.80;;;19.00;32.20;;;;;;5008611;28;20290;-61
2022/03/21 12:56:50;;;;;;;21.50;10.93;;;20.20;30.20;;;;;;5022266;28;20534;-61
2022/03/21 12:59:21;;;;;;;21.42;11.55;;;21.10;29.90;;;;;;5021467;28;20194;-63
2022/03/21 13:01:47;;;;;;;19.90;11.75;;;22.20;28.80;;;;;;5021934;28;20610;-60
2022/03/21 13:12:35;;;;;;;27.00;13.15;;;22.10;28.60;;;;;;5025984;28;20230;-62